sensor_id;sensor_type;location;lat;lon;timestamp;temperature;humidity
20398;DHT22;10358;49.590;11.030;2023-01-28T00:00:25;1.00;99.90
20398;DHT22;10358;49.590;11.030;2023-01-28T00:02:50;1.00;99.90
20398;DHT22;10358;49.590;11.030;2023-01-28T00:05:16;1.00;99.90
20398;DHT22;10358;49.590;11.030;2023-01-28T00:07:42;1.10;99.90
20398;DHT22;10358;49.590;11.030;2023-01-28T00:10:08;1.10;99.90
20398;DHT22;10358;49.590;11.030;2023-01-28T00:12:34;1.10;99.90
20398;DHT22;10358;49.590;11.030;2023-01-28T00:15:00;1.10;99.90
20398;DHT22;10358;49.590;11.030;2023-01-28T00:17:25;1.10;99.90
20398;DHT22;10358;49.590;11.030;2023-01-28T00:19:51;1.10;99.90
20398;DHT22;10358;49.590;11.030;2023-01-28T00:22:16;1.10;99.90
20398;DHT22;10358;49.590;11.030;2023-01-28T00:24:42;1.10;99.90
20398;DHT22;10358;49.590;11.030;2023-01-28T00:27:07;1.10;99.90
20398;DHT22;10358;49.590;11.030;2023-01-28T00:29:33;1.10;99.90
20398;DHT22;10358;49.590;11.030;2023-01-28T00:31:59;1.10;99.90
20398;DHT22;10358;49.590;11.030;2023-01-28T00:34:24;1.10;99.90
20398;DHT22;10358;49.590;11.030;2023-01-28T00:36:50;1.00;99.90
20398;DHT22;10358;49.590;11.030;2023-01-28T00:39:22;1.10;99.90
20398;DHT22;10358;49.590;11.030;2023-01-28T00:41:50;1.10;99.90
20398;DHT22;10358;49.590;11.030;2023-01-28T00:44:15;1.20;99.90
20398;DHT22;10358;49.590;11.030;2023-01-28T00:46:41;1.10;99.90
20398;DHT22;10358;49.590;11.030;2023-01-28T00:49:07;1.20;99.90
20398;DHT22;10358;49.590;11.030;2023-01-28T00:51:33;1.20;99.90
20398;DHT22;10358;49.590;11.030;2023-01-28T00:53:58;1.20;99.90
20398;DHT22;10358;49.590;11.030;2023-01-28T00:56:24;1.20;99.90
20398;DHT22;10358;49.590;11.030;2023-01-28T00:58:49;1.20;99.90
20398;DHT22;10358;49.590;11.030;2023-01-28T01:01:23;1.20;99.90
20398;DHT22;10358;49.590;11.030;2023-01-28T01:03:50;1.20;99.90
20398;DHT22;10358;49.590;11.030;2023-01-28T01:06:38;1.20;99.90
20398;DHT22;10358;49.590;11.030;2023-01-28T01:09:07;1.20;99.90
20398;DHT22;10358;49.590;11.030;2023-01-28T01:11:33;1.20;99.90
20398;DHT22;10358;49.590;11.030;2023-01-28T01:13:59;1.20;99.90
20398;DHT22;10358;49.590;11.030;2023-01-28T01:16:27;1.20;99.90
20398;DHT22;10358;49.590;11.030;2023-01-28T01:18:54;1.20;99.90
20398;DHT22;10358;49.590;11.030;2023-01-28T01:21:24;1.20;99.90
20398;DHT22;10358;49.590;11.030;2023-01-28T01:23:50;1.20;99.90
20398;DHT22;10358;49.590;11.030;2023-01-28T01:26:16;1.20;99.90
20398;DHT22;10358;49.590;11.030;2023-01-28T01:28:42;1.30;99.90
20398;DHT22;10358;49.590;11.030;2023-01-28T01:31:11;1.30;99.90
20398;DHT22;10358;49.590;11.030;2023-01-28T01:33:38;1.30;99.90
20398;DHT22;10358;49.590;11.030;2023-01-28T01:36:04;1.20;99.90
20398;DHT22;10358;49.590;11.030;2023-01-28T01:38:30;1.20;99.90
20398;DHT22;10358;49.590;11.030;2023-01-28T01:40:57;1.30;99.90
20398;DHT22;10358;49.590;11.030;2023-01-28T01:43:23;1.20;99.90
20398;DHT22;10358;49.590;11.030;2023-01-28T01:45:55;1.30;99.90
20398;DHT22;10358;49.590;11.030;2023-01-28T01:48:40;1.30;99.90
20398;DHT22;10358;49.590;11.030;2023-01-28T01:51:09;1.30;99.90
20398;DHT22;10358;49.590;11.030;2023-01-28T01:53:40;1.30;99.90
20398;DHT22;10358;49.590;11.030;2023-01-28T01:56:08;1.30;99.90
20398;DHT22;10358;49.590;11.030;2023-01-28T01:58:37;1.30;99.90
20398;DHT22;10358;49.590;11.030;2023-01-28T02:01:05;1.30;99.90
20398;DHT22;10358;49.590;11.030;2023-01-28T02:03:37;1.30;99.90
20398;DHT22;10358;49.590;11.030;2023-01-28T02:06:05;1.30;99.90
20398;DHT22;10358;49.590;11.030;2023-01-28T02:08:32;1.30;99.90
20398;DHT22;10358;49.590;11.030;2023-01-28T02:11:01;1.30;99.90
20398;DHT22;10358;49.590;11.030;2023-01-28T02:13:32;1.30;99.90
20398;DHT22;10358;49.590;11.030;2023-01-28T02:16:00;1.30;99.90
20398;DHT22;10358;49.590;11.030;2023-01-28T02:18:26;1.30;99.90
20398;DHT22;10358;49.590;11.030;2023-01-28T02:21:34;1.30;99.90
20398;DHT22;10358;49.590;11.030;2023-01-28T02:24:18;1.30;99.90
20398;DHT22;10358;49.590;11.030;2023-01-28T02:27:10;1.30;99.90
20398;DHT22;10358;49.590;11.030;2023-01-28T02:30:01;1.30;99.90
20398;DHT22;10358;49.590;11.030;2023-01-28T02:32:39;1.30;99.90
20398;DHT22;10358;49.590;11.030;2023-01-28T02:38:33;1.30;99.90
20398;DHT22;10358;49.590;11.030;2023-01-28T02:41:05;1.30;99.90
20398;DHT22;10358;49.590;11.030;2023-01-28T02:46:20;1.20;99.90
20398;DHT22;10358;49.590;11.030;2023-01-28T02:49:13;1.20;99.90
20398;DHT22;10358;49.590;11.030;2023-01-28T02:51:46;1.20;99.90
20398;DHT22;10358;49.590;11.030;2023-01-28T02:54:33;1.20;99.90
20398;DHT22;10358;49.590;11.030;2023-01-28T02:57:29;1.20;99.90
20398;DHT22;10358;49.590;11.030;2023-01-28T03:05:26;1.20;99.90
20398;DHT22;10358;49.590;11.030;2023-01-28T03:07:54;1.20;99.90
20398;DHT22;10358;49.590;11.030;2023-01-28T03:10:21;1.30;99.90
20398;DHT22;10358;49.590;11.030;2023-01-28T03:12:53;1.30;99.90
20398;DHT22;10358;49.590;11.030;2023-01-28T03:15:48;1.30;99.90
20398;DHT22;10358;49.590;11.030;2023-01-28T03:18:46;1.30;99.90
20398;DHT22;10358;49.590;11.030;2023-01-28T03:21:35;1.30;99.90
20398;DHT22;10358;49.590;11.030;2023-01-28T03:24:30;1.30;99.90
20398;DHT22;10358;49.590;11.030;2023-01-28T03:27:33;1.30;99.90
20398;DHT22;10358;49.590;11.030;2023-01-28T03:30:27;1.30;99.90
20398;DHT22;10358;49.590;11.030;2023-01-28T03:33:13;1.30;99.90
20398;DHT22;10358;49.590;11.030;2023-01-28T03:35:58;1.30;99.90
20398;DHT22;10358;49.590;11.030;2023-01-28T03:38:43;1.30;99.90
20398;DHT22;10358;49.590;11.030;2023-01-28T03:41:19;1.30;99.90
20398;DHT22;10358;49.590;11.030;2023-01-28T03:43:46;1.30;99.90
20398;DHT22;10358;49.590;11.030;2023-01-28T03:46:12;1.30;99.90
20398;DHT22;10358;49.590;11.030;2023-01-28T03:48:37;1.30;99.90
20398;DHT22;10358;49.590;11.030;2023-01-28T03:51:03;1.30;99.90
20398;DHT22;10358;49.590;11.030;2023-01-28T03:53:29;1.30;99.90
20398;DHT22;10358;49.590;11.030;2023-01-28T03:55:54;1.30;99.90
20398;DHT22;10358;49.590;11.030;2023-01-28T03:58:23;1.30;99.90
20398;DHT22;10358;49.590;11.030;2023-01-28T04:01:11;1.30;99.90
20398;DHT22;10358;49.590;11.030;2023-01-28T04:03:37;1.30;99.90
20398;DHT22;10358;49.590;11.030;2023-01-28T04:06:07;1.30;99.90
20398;DHT22;10358;49.590;11.030;2023-01-28T04:08:33;1.20;99.90
20398;DHT22;10358;49.590;11.030;2023-01-28T04:11:00;1.20;99.90
20398;DHT22;10358;49.590;11.030;2023-01-28T04:13:40;1.20;99.90
20398;DHT22;10358;49.590;11.030;2023-01-28T04:16:06;1.20;99.90
20398;DHT22;10358;49.590;11.030;2023-01-28T04:18:33;1.20;99.90
20398;DHT22;10358;49.590;11.030;2023-01-28T04:20:58;1.20;99.90
20398;DHT22;10358;49.590;11.030;2023-01-28T04:23:24;1.20;99.90
20398;DHT22;10358;49.590;11.030;2023-01-28T04:25:50;1.20;99.90
20398;DHT22;10358;49.590;11.030;2023-01-28T04:28:16;1.20;99.90
20398;DHT22;10358;49.590;11.030;2023-01-28T04:30:41;1.20;99.90
20398;DHT22;10358;49.590;11.030;2023-01-28T04:33:07;1.20;99.90
20398;DHT22;10358;49.590;11.030;2023-01-28T04:35:32;1.20;99.90
20398;DHT22;10358;49.590;11.030;2023-01-28T04:37:58;1.20;99.90
20398;DHT22;10358;49.590;11.030;2023-01-28T04:40:23;1.20;99.90
20398;DHT22;10358;49.590;11.030;2023-01-28T04:42:53;1.20;99.90
20398;DHT22;10358;49.590;11.030;2023-01-28T04:45:19;1.10;99.90
20398;DHT22;10358;49.590;11.030;2023-01-28T04:47:45;1.20;99.90
20398;DHT22;10358;49.590;11.030;2023-01-28T04:50:11;1.10;99.90
20398;DHT22;10358;49.590;11.030;2023-01-28T04:52:36;1.10;99.90
20398;DHT22;10358;49.590;11.030;2023-01-28T04:55:03;1.10;99.90
20398;DHT22;10358;49.590;11.030;2023-01-28T04:57:29;1.10;99.90
20398;DHT22;10358;49.590;11.030;2023-01-28T04:59:55;1.10;99.90
20398;DHT22;10358;49.590;11.030;2023-01-28T05:02:20;1.20;99.90
20398;DHT22;10358;49.590;11.030;2023-01-28T05:04:46;1.20;99.90
20398;DHT22;10358;49.590;11.030;2023-01-28T05:07:11;1.20;99.90
20398;DHT22;10358;49.590;11.030;2023-01-28T05:09:37;1.10;99.90
20398;DHT22;10358;49.590;11.030;2023-01-28T05:12:03;1.20;99.90
20398;DHT22;10358;49.590;11.030;2023-01-28T05:14:28;1.20;99.90
20398;DHT22;10358;49.590;11.030;2023-01-28T05:16:54;1.20;99.90
20398;DHT22;10358;49.590;11.030;2023-01-28T05:19:20;1.20;99.90
20398;DHT22;10358;49.590;11.030;2023-01-28T05:21:45;1.20;99.90
20398;DHT22;10358;49.590;11.030;2023-01-28T05:24:11;1.20;99.90
20398;DHT22;10358;49.590;11.030;2023-01-28T05:26:36;1.20;99.90
20398;DHT22;10358;49.590;11.030;2023-01-28T05:29:03;1.20;99.90
20398;DHT22;10358;49.590;11.030;2023-01-28T05:31:28;1.20;99.90
20398;DHT22;10358;49.590;11.030;2023-01-28T05:33:54;1.20;99.90
20398;DHT22;10358;49.590;11.030;2023-01-28T05:36:20;1.30;99.90
20398;DHT22;10358;49.590;11.030;2023-01-28T05:38:46;1.30;99.90
20398;DHT22;10358;49.590;11.030;2023-01-28T05:41:11;1.30;99.90
20398;DHT22;10358;49.590;11.030;2023-01-28T05:43:37;1.40;99.90
20398;DHT22;10358;49.590;11.030;2023-01-28T05:46:02;1.40;99.90
20398;DHT22;10358;49.590;11.030;2023-01-28T05:48:28;1.30;99.90
20398;DHT22;10358;49.590;11.030;2023-01-28T05:50:54;1.30;99.90
20398;DHT22;10358;49.590;11.030;2023-01-28T05:53:19;1.30;99.90
20398;DHT22;10358;49.590;11.030;2023-01-28T05:55:49;1.30;99.90
20398;DHT22;10358;49.590;11.030;2023-01-28T05:58:15;1.20;99.90
20398;DHT22;10358;49.590;11.030;2023-01-28T06:00:41;1.20;99.90
20398;DHT22;10358;49.590;11.030;2023-01-28T06:03:06;1.20;99.90
20398;DHT22;10358;49.590;11.030;2023-01-28T06:05:32;1.20;99.90
20398;DHT22;10358;49.590;11.030;2023-01-28T06:07:58;1.20;99.90
20398;DHT22;10358;49.590;11.030;2023-01-28T06:10:23;1.20;99.90
20398;DHT22;10358;49.590;11.030;2023-01-28T06:12:49;1.20;99.90
20398;DHT22;10358;49.590;11.030;2023-01-28T06:15:15;1.20;99.90
20398;DHT22;10358;49.590;11.030;2023-01-28T06:17:40;1.20;99.90
20398;DHT22;10358;49.590;11.030;2023-01-28T06:20:06;1.20;99.90
20398;DHT22;10358;49.590;11.030;2023-01-28T06:22:33;1.20;99.90
20398;DHT22;10358;49.590;11.030;2023-01-28T06:24:58;1.20;99.90
20398;DHT22;10358;49.590;11.030;2023-01-28T06:27:24;1.20;99.90
20398;DHT22;10358;49.590;11.030;2023-01-28T06:29:49;1.20;99.90
20398;DHT22;10358;49.590;11.030;2023-01-28T06:32:15;1.20;99.90
20398;DHT22;10358;49.590;11.030;2023-01-28T06:34:40;1.20;99.90
20398;DHT22;10358;49.590;11.030;2023-01-28T06:37:06;1.20;99.90
20398;DHT22;10358;49.590;11.030;2023-01-28T06:39:32;1.20;99.90
20398;DHT22;10358;49.590;11.030;2023-01-28T06:41:58;1.20;99.90
20398;DHT22;10358;49.590;11.030;2023-01-28T06:44:23;1.20;99.90
20398;DHT22;10358;49.590;11.030;2023-01-28T06:46:49;1.20;99.90
20398;DHT22;10358;49.590;11.030;2023-01-28T06:49:15;1.20;99.90
20398;DHT22;10358;49.590;11.030;2023-01-28T06:51:40;1.10;99.90
20398;DHT22;10358;49.590;11.030;2023-01-28T06:54:06;1.10;99.90
20398;DHT22;10358;49.590;11.030;2023-01-28T06:56:32;1.10;99.90
20398;DHT22;10358;49.590;11.030;2023-01-28T06:58:57;1.00;99.90
20398;DHT22;10358;49.590;11.030;2023-01-28T07:01:23;1.10;99.90
20398;DHT22;10358;49.590;11.030;2023-01-28T07:03:49;1.10;99.90
20398;DHT22;10358;49.590;11.030;2023-01-28T07:06:14;1.10;99.90
20398;DHT22;10358;49.590;11.030;2023-01-28T07:08:40;1.10;99.90
20398;DHT22;10358;49.590;11.030;2023-01-28T07:11:06;1.10;99.90
20398;DHT22;10358;49.590;11.030;2023-01-28T07:13:32;1.10;99.90
20398;DHT22;10358;49.590;11.030;2023-01-28T07:15:58;1.10;99.90
20398;DHT22;10358;49.590;11.030;2023-01-28T07:18:23;1.10;99.90
20398;DHT22;10358;49.590;11.030;2023-01-28T07:20:49;1.00;99.90
20398;DHT22;10358;49.590;11.030;2023-01-28T07:23:14;1.00;99.90
20398;DHT22;10358;49.590;11.030;2023-01-28T07:25:40;1.00;99.90
20398;DHT22;10358;49.590;11.030;2023-01-28T07:28:06;1.00;99.90
20398;DHT22;10358;49.590;11.030;2023-01-28T07:30:31;1.00;99.90
20398;DHT22;10358;49.590;11.030;2023-01-28T07:32:58;1.00;99.90
20398;DHT22;10358;49.590;11.030;2023-01-28T07:35:24;1.00;99.90
20398;DHT22;10358;49.590;11.030;2023-01-28T07:37:51;1.00;99.90
20398;DHT22;10358;49.590;11.030;2023-01-28T07:40:17;1.10;99.90
20398;DHT22;10358;49.590;11.030;2023-01-28T07:42:43;1.20;99.90
20398;DHT22;10358;49.590;11.030;2023-01-28T07:45:09;1.10;99.90
20398;DHT22;10358;49.590;11.030;2023-01-28T07:47:34;1.20;99.90
20398;DHT22;10358;49.590;11.030;2023-01-28T07:50:00;1.20;99.90
20398;DHT22;10358;49.590;11.030;2023-01-28T07:52:25;1.20;99.90
20398;DHT22;10358;49.590;11.030;2023-01-28T07:54:51;1.20;99.90
20398;DHT22;10358;49.590;11.030;2023-01-28T07:57:16;1.20;99.90
20398;DHT22;10358;49.590;11.030;2023-01-28T07:59:51;1.20;99.90
20398;DHT22;10358;49.590;11.030;2023-01-28T08:02:17;1.20;99.90
20398;DHT22;10358;49.590;11.030;2023-01-28T08:04:43;1.20;99.90
20398;DHT22;10358;49.590;11.030;2023-01-28T08:07:08;1.30;99.90
20398;DHT22;10358;49.590;11.030;2023-01-28T08:09:34;1.30;99.90
20398;DHT22;10358;49.590;11.030;2023-01-28T08:12:03;1.30;99.90
20398;DHT22;10358;49.590;11.030;2023-01-28T08:14:28;1.30;99.90
20398;DHT22;10358;49.590;11.030;2023-01-28T08:16:54;1.40;99.90
20398;DHT22;10358;49.590;11.030;2023-01-28T08:19:20;1.40;99.90
20398;DHT22;10358;49.590;11.030;2023-01-28T08:21:49;1.50;99.90
20398;DHT22;10358;49.590;11.030;2023-01-28T08:24:15;1.50;99.90
20398;DHT22;10358;49.590;11.030;2023-01-28T08:26:41;1.50;99.90
20398;DHT22;10358;49.590;11.030;2023-01-28T08:29:06;1.60;99.90
20398;DHT22;10358;49.590;11.030;2023-01-28T08:31:32;1.60;99.90
20398;DHT22;10358;49.590;11.030;2023-01-28T08:33:57;1.60;99.90
20398;DHT22;10358;49.590;11.030;2023-01-28T08:36:23;1.60;99.90
20398;DHT22;10358;49.590;11.030;2023-01-28T08:38:52;1.60;99.90
20398;DHT22;10358;49.590;11.030;2023-01-28T08:41:21;1.70;99.90
20398;DHT22;10358;49.590;11.030;2023-01-28T08:43:47;1.70;99.90
20398;DHT22;10358;49.590;11.030;2023-01-28T08:46:14;1.70;99.90
20398;DHT22;10358;49.590;11.030;2023-01-28T08:48:39;1.70;99.90
20398;DHT22;10358;49.590;11.030;2023-01-28T08:51:05;1.70;99.90
20398;DHT22;10358;49.590;11.030;2023-01-28T08:53:31;1.70;99.90
20398;DHT22;10358;49.590;11.030;2023-01-28T08:55:56;1.70;99.90
20398;DHT22;10358;49.590;11.030;2023-01-28T08:58:22;1.70;99.90
20398;DHT22;10358;49.590;11.030;2023-01-28T09:00:47;1.80;99.90
20398;DHT22;10358;49.590;11.030;2023-01-28T09:03:13;1.80;99.90
20398;DHT22;10358;49.590;11.030;2023-01-28T09:05:39;1.90;99.90
20398;DHT22;10358;49.590;11.030;2023-01-28T09:08:08;1.80;99.90
20398;DHT22;10358;49.590;11.030;2023-01-28T09:10:34;1.90;99.90
20398;DHT22;10358;49.590;11.030;2023-01-28T09:13:13;1.90;99.90
20398;DHT22;10358;49.590;11.030;2023-01-28T09:15:39;2.00;99.90
20398;DHT22;10358;49.590;11.030;2023-01-28T09:18:05;1.90;99.90
20398;DHT22;10358;49.590;11.030;2023-01-28T09:20:31;2.00;99.90
20398;DHT22;10358;49.590;11.030;2023-01-28T09:22:58;2.00;99.90
20398;DHT22;10358;49.590;11.030;2023-01-28T09:25:23;2.00;99.90
20398;DHT22;10358;49.590;11.030;2023-01-28T09:27:49;2.00;99.90
20398;DHT22;10358;49.590;11.030;2023-01-28T09:30:15;2.00;99.90
20398;DHT22;10358;49.590;11.030;2023-01-28T09:32:40;2.10;99.90
20398;DHT22;10358;49.590;11.030;2023-01-28T09:35:06;2.10;99.90
20398;DHT22;10358;49.590;11.030;2023-01-28T09:37:32;2.20;99.90
20398;DHT22;10358;49.590;11.030;2023-01-28T09:39:57;2.20;99.90
20398;DHT22;10358;49.590;11.030;2023-01-28T09:42:55;2.20;99.90
20398;DHT22;10358;49.590;11.030;2023-01-28T09:45:42;2.20;99.90
20398;DHT22;10358;49.590;11.030;2023-01-28T09:48:14;2.20;99.90
20398;DHT22;10358;49.590;11.030;2023-01-28T09:50:44;2.20;99.90
20398;DHT22;10358;49.590;11.030;2023-01-28T09:53:19;2.30;99.90
20398;DHT22;10358;49.590;11.030;2023-01-28T09:55:49;2.30;99.90
20398;DHT22;10358;49.590;11.030;2023-01-28T09:58:16;2.30;99.90
20398;DHT22;10358;49.590;11.030;2023-01-28T10:01:00;2.40;99.90
20398;DHT22;10358;49.590;11.030;2023-01-28T10:03:36;2.40;99.90
20398;DHT22;10358;49.590;11.030;2023-01-28T10:09:06;2.50;99.90
20398;DHT22;10358;49.590;11.030;2023-01-28T10:11:53;2.50;99.90
20398;DHT22;10358;49.590;11.030;2023-01-28T10:14:34;2.50;99.90
20398;DHT22;10358;49.590;11.030;2023-01-28T10:17:41;2.60;99.90
20398;DHT22;10358;49.590;11.030;2023-01-28T10:22:43;2.40;99.90
20398;DHT22;10358;49.590;11.030;2023-01-28T10:25:18;2.50;99.90
20398;DHT22;10358;49.590;11.030;2023-01-28T10:27:47;2.50;99.90
20398;DHT22;10358;49.590;11.030;2023-01-28T10:30:21;2.60;99.90
20398;DHT22;10358;49.590;11.030;2023-01-28T10:32:55;2.60;99.90
20398;DHT22;10358;49.590;11.030;2023-01-28T10:35:21;2.60;99.90
20398;DHT22;10358;49.590;11.030;2023-01-28T10:37:48;2.60;99.90
20398;DHT22;10358;49.590;11.030;2023-01-28T10:40:16;2.70;99.90
20398;DHT22;10358;49.590;11.030;2023-01-28T10:42:43;2.70;99.90
20398;DHT22;10358;49.590;11.030;2023-01-28T10:45:22;2.80;99.90
20398;DHT22;10358;49.590;11.030;2023-01-28T10:47:55;2.80;99.90
20398;DHT22;10358;49.590;11.030;2023-01-28T10:50:25;2.70;99.90
20398;DHT22;10358;49.590;11.030;2023-01-28T10:53:01;2.50;99.90
20398;DHT22;10358;49.590;11.030;2023-01-28T10:55:29;2.30;99.90
20398;DHT22;10358;49.590;11.030;2023-01-28T10:57:55;2.20;99.90
20398;DHT22;10358;49.590;11.030;2023-01-28T11:00:25;2.10;99.90
20398;DHT22;10358;49.590;11.030;2023-01-28T11:02:52;2.30;99.90
20398;DHT22;10358;49.590;11.030;2023-01-28T11:05:29;2.40;99.90
20398;DHT22;10358;49.590;11.030;2023-01-28T11:08:11;2.40;99.90
20398;DHT22;10358;49.590;11.030;2023-01-28T11:10:37;2.30;99.90
20398;DHT22;10358;49.590;11.030;2023-01-28T11:13:11;2.00;99.90
20398;DHT22;10358;49.590;11.030;2023-01-28T11:15:46;2.20;99.90
20398;DHT22;10358;49.590;11.030;2023-01-28T11:18:18;2.30;99.90
20398;DHT22;10358;49.590;11.030;2023-01-28T11:20:51;2.40;99.90
20398;DHT22;10358;49.590;11.030;2023-01-28T11:23:23;2.40;99.90
20398;DHT22;10358;49.590;11.030;2023-01-28T11:25:59;2.40;99.90
20398;DHT22;10358;49.590;11.030;2023-01-28T11:28:26;2.40;99.90
20398;DHT22;10358;49.590;11.030;2023-01-28T11:30:55;2.40;99.90
20398;DHT22;10358;49.590;11.030;2023-01-28T11:36:16;2.50;99.90
20398;DHT22;10358;49.590;11.030;2023-01-28T11:38:57;2.50;99.90
20398;DHT22;10358;49.590;11.030;2023-01-28T11:41:27;2.60;99.90
20398;DHT22;10358;49.590;11.030;2023-01-28T11:43:53;2.60;99.90
20398;DHT22;10358;49.590;11.030;2023-01-28T11:49:07;2.60;99.90
20398;DHT22;10358;49.590;11.030;2023-01-28T11:51:54;2.60;99.90
20398;DHT22;10358;49.590;11.030;2023-01-28T11:58:06;2.60;99.90
20398;DHT22;10358;49.590;11.030;2023-01-28T12:01:08;2.60;99.90
20398;DHT22;10358;49.590;11.030;2023-01-28T12:06:46;2.60;99.90
20398;DHT22;10358;49.590;11.030;2023-01-28T12:09:36;2.60;99.90
20398;DHT22;10358;49.590;11.030;2023-01-28T12:18:19;2.50;99.90
20398;DHT22;10358;49.590;11.030;2023-01-28T12:21:05;2.40;99.90
20398;DHT22;10358;49.590;11.030;2023-01-28T12:26:36;2.20;99.90
20398;DHT22;10358;49.590;11.030;2023-01-28T12:29:40;2.10;99.90
20398;DHT22;10358;49.590;11.030;2023-01-28T12:35:19;2.00;99.90
20398;DHT22;10358;49.590;11.030;2023-01-28T12:37:59;2.10;99.90
20398;DHT22;10358;49.590;11.030;2023-01-28T12:46:46;2.10;99.90
20398;DHT22;10358;49.590;11.030;2023-01-28T12:52:20;1.80;99.90
20398;DHT22;10358;49.590;11.030;2023-01-28T12:55:00;1.80;99.90
20398;DHT22;10358;49.590;11.030;2023-01-28T12:57:30;1.80;99.90
20398;DHT22;10358;49.590;11.030;2023-01-28T13:00:05;1.90;99.90
20398;DHT22;10358;49.590;11.030;2023-01-28T13:02:43;1.90;99.90
20398;DHT22;10358;49.590;11.030;2023-01-28T13:05:14;1.90;99.90
20398;DHT22;10358;49.590;11.030;2023-01-28T13:10:58;2.10;99.90
20398;DHT22;10358;49.590;11.030;2023-01-28T13:13:35;2.10;99.90
20398;DHT22;10358;49.590;11.030;2023-01-28T13:16:02;2.00;99.90
20398;DHT22;10358;49.590;11.030;2023-01-28T13:23:45;2.00;99.90
20398;DHT22;10358;49.590;11.030;2023-01-28T13:26:25;2.00;99.90
20398;DHT22;10358;49.590;11.030;2023-01-28T13:28:53;2.00;99.90
20398;DHT22;10358;49.590;11.030;2023-01-28T13:31:22;1.90;99.90
20398;DHT22;10358;49.590;11.030;2023-01-28T13:36:26;1.90;99.90
20398;DHT22;10358;49.590;11.030;2023-01-28T13:39:17;1.90;99.90
20398;DHT22;10358;49.590;11.030;2023-01-28T13:41:46;1.90;99.90
20398;DHT22;10358;49.590;11.030;2023-01-28T13:44:29;1.90;99.90
20398;DHT22;10358;49.590;11.030;2023-01-28T13:49:53;2.00;99.90
20398;DHT22;10358;49.590;11.030;2023-01-28T13:52:32;2.00;99.90
20398;DHT22;10358;49.590;11.030;2023-01-28T13:57:45;2.00;99.90
20398;DHT22;10358;49.590;11.030;2023-01-28T14:16:54;1.70;99.90
20398;DHT22;10358;49.590;11.030;2023-01-28T14:19:27;1.70;99.90
20398;DHT22;10358;49.590;11.030;2023-01-28T14:21:54;1.70;99.90
20398;DHT22;10358;49.590;11.030;2023-01-28T14:24:20;1.70;99.90
20398;DHT22;10358;49.590;11.030;2023-01-28T14:26:57;1.60;99.90
20398;DHT22;10358;49.590;11.030;2023-01-28T14:29:54;1.60;99.90
20398;DHT22;10358;49.590;11.030;2023-01-28T14:32:17;1.60;99.90
20398;DHT22;10358;49.590;11.030;2023-01-28T14:34:44;1.50;99.90
20398;DHT22;10358;49.590;11.030;2023-01-28T14:37:17;1.50;99.90
20398;DHT22;10358;49.590;11.030;2023-01-28T14:39:57;1.50;99.90
20398;DHT22;10358;49.590;11.030;2023-01-28T14:42:25;1.30;99.90
20398;DHT22;10358;49.590;11.030;2023-01-28T14:48:20;1.20;99.90
20398;DHT22;10358;49.590;11.030;2023-01-28T14:50:52;1.10;99.90
20398;DHT22;10358;49.590;11.030;2023-01-28T14:58:51;1.10;99.90
20398;DHT22;10358;49.590;11.030;2023-01-28T15:01:23;1.20;99.90
20398;DHT22;10358;49.590;11.030;2023-01-28T15:03:50;1.20;99.90
20398;DHT22;10358;49.590;11.030;2023-01-28T15:06:18;1.10;99.90
20398;DHT22;10358;49.590;11.030;2023-01-28T15:08:45;1.00;99.90
20398;DHT22;10358;49.590;11.030;2023-01-28T15:11:14;1.00;99.90
20398;DHT22;10358;49.590;11.030;2023-01-28T15:13:44;1.00;99.90
20398;DHT22;10358;49.590;11.030;2023-01-28T15:16:21;1.00;99.90
20398;DHT22;10358;49.590;11.030;2023-01-28T15:18:48;1.00;99.90
20398;DHT22;10358;49.590;11.030;2023-01-28T15:21:19;0.90;99.90
20398;DHT22;10358;49.590;11.030;2023-01-28T15:23:48;0.90;99.90
20398;DHT22;10358;49.590;11.030;2023-01-28T15:26:19;0.90;99.90
20398;DHT22;10358;49.590;11.030;2023-01-28T15:28:46;0.90;99.90
20398;DHT22;10358;49.590;11.030;2023-01-28T15:31:23;0.90;99.90
20398;DHT22;10358;49.590;11.030;2023-01-28T15:34:16;0.90;99.90
20398;DHT22;10358;49.590;11.030;2023-01-28T15:36:43;0.90;99.90
20398;DHT22;10358;49.590;11.030;2023-01-28T15:39:20;0.90;99.90
20398;DHT22;10358;49.590;11.030;2023-01-28T15:41:51;0.90;99.90
20398;DHT22;10358;49.590;11.030;2023-01-28T15:44:33;0.90;99.90
20398;DHT22;10358;49.590;11.030;2023-01-28T15:47:01;0.90;99.90
20398;DHT22;10358;49.590;11.030;2023-01-28T15:49:34;0.80;99.90
20398;DHT22;10358;49.590;11.030;2023-01-28T15:52:01;0.80;99.90
20398;DHT22;10358;49.590;11.030;2023-01-28T15:54:27;0.70;99.90
20398;DHT22;10358;49.590;11.030;2023-01-28T15:56:54;0.70;99.90
20398;DHT22;10358;49.590;11.030;2023-01-28T15:59:26;0.60;99.90
20398;DHT22;10358;49.590;11.030;2023-01-28T16:04:39;0.50;99.90
20398;DHT22;10358;49.590;11.030;2023-01-28T16:07:04;0.50;99.90
20398;DHT22;10358;49.590;11.030;2023-01-28T16:09:32;0.50;99.90
20398;DHT22;10358;49.590;11.030;2023-01-28T16:12:17;0.50;99.90
20398;DHT22;10358;49.590;11.030;2023-01-28T16:14:57;0.40;99.90
20398;DHT22;10358;49.590;11.030;2023-01-28T16:17:29;0.40;99.90
20398;DHT22;10358;49.590;11.030;2023-01-28T16:19:57;0.40;99.90
20398;DHT22;10358;49.590;11.030;2023-01-28T16:22:44;0.30;99.90
20398;DHT22;10358;49.590;11.030;2023-01-28T16:25:27;0.30;99.90
20398;DHT22;10358;49.590;11.030;2023-01-28T16:27:55;0.20;99.90
20398;DHT22;10358;49.590;11.030;2023-01-28T16:30:20;0.20;99.90
20398;DHT22;10358;49.590;11.030;2023-01-28T16:32:46;0.20;99.90
20398;DHT22;10358;49.590;11.030;2023-01-28T16:35:18;0.20;99.90
20398;DHT22;10358;49.590;11.030;2023-01-28T16:37:45;0.20;99.90
20398;DHT22;10358;49.590;11.030;2023-01-28T16:40:13;0.20;99.90
20398;DHT22;10358;49.590;11.030;2023-01-28T16:42:39;0.20;99.90
20398;DHT22;10358;49.590;11.030;2023-01-28T16:45:05;0.20;99.90
20398;DHT22;10358;49.590;11.030;2023-01-28T16:47:31;0.10;99.90
20398;DHT22;10358;49.590;11.030;2023-01-28T16:49:57;0.10;99.90
20398;DHT22;10358;49.590;11.030;2023-01-28T16:52:22;-0.10;99.90
20398;DHT22;10358;49.590;11.030;2023-01-28T16:54:48;-0.10;99.90
20398;DHT22;10358;49.590;11.030;2023-01-28T16:57:16;-0.20;99.90
20398;DHT22;10358;49.590;11.030;2023-01-28T16:59:43;-0.10;99.90
20398;DHT22;10358;49.590;11.030;2023-01-28T17:02:11;-0.10;99.90
20398;DHT22;10358;49.590;11.030;2023-01-28T17:04:36;-0.10;99.90
20398;DHT22;10358;49.590;11.030;2023-01-28T17:07:02;-0.10;99.90
20398;DHT22;10358;49.590;11.030;2023-01-28T17:09:27;-0.20;99.90
20398;DHT22;10358;49.590;11.030;2023-01-28T17:11:54;-0.20;99.90
20398;DHT22;10358;49.590;11.030;2023-01-28T17:14:19;-0.10;99.90
20398;DHT22;10358;49.590;11.030;2023-01-28T17:16:45;-0.10;99.90
20398;DHT22;10358;49.590;11.030;2023-01-28T17:19:10;-0.10;99.90
20398;DHT22;10358;49.590;11.030;2023-01-28T17:21:36;-0.10;99.90
20398;DHT22;10358;49.590;11.030;2023-01-28T17:24:02;-0.20;99.90